Turkmenbashi Airport
UTAK : now visible

Airfield :











YOU CAN JOIN US ON...

 
LOGIN :

Register | Disclaimer

   EN    FR    IT 

 









Legend :    VFR   Marginal VFR   IFR   Intensive IFR   Very Intensive IFR
Visi :
Ceiling :
>= 8 km
>= 3000ft
5 to 8 km
1000 to 3000 ft
1500m to 5 km
500 to 1000 ft
800 to 1500m
200 to 500 ft
< 800m
< 200 ft
Symbols :   Thunderstorms  Fog  Heavy snow  Heavy precipitations  Wind > 20 kt







- Airport Elevation : 279 ft
- IATA code : KRW


UTAK - Turkmenbashi

CURRENT METAR :
  • 242000Z 22012KT CAVOK 10/07 Q1026 R16R/CLRD70 NOSIG

EXPIRED METARs :
  • 241900Z 22012KT CAVOK 11/07 Q1026 R16R/CLRD70 NOSIG
  • 241800Z 22014KT CAVOK 10/07 Q1026 R16R/CLRD70 NOSIG

TAF TAF UTAK
Valid from the 24 at 18:00 until the 25 at 18:00 UTC


241630Z 2418/2518 23012G22KT 2500 BR BKN004 530005
TEMPO 2418/2422 1000 BR BKN002
TEMPO 2422/2504 30016KT 0500 FG VV001
BECMG 2504/2505 27014G24KT 9999 NSW SCT020 BKN100
TEMPO 2505/2508 5000 BKN007
TEMPO 2508/2512 BKN020
UTAK FIR / Asia



MET'MAP, your aeronautical weather chart ! - Copyright ORBIFLY December 2007 - Disclaimer

ORBIFLY MET'MAP TEAM :

Programming & Development : Alexandra Zaïnal
Concept & Development : Baudouin d'Aumeries
Co-Development & Prog : Marc-Olivier Méhu
Technical & hardware support : Manuel Goepfert

Contact : metmap@orbifly.com




SOURCES & CREDITS :

   NOAA       Earth
Advisory